createdAt,value
2024-02-26T00:02:09.261Z,47.30
2024-02-26T00:04:36.226Z,44.13
2024-02-26T00:07:03.242Z,43.83
2024-02-26T00:09:31.343Z,46.60
2024-02-26T00:11:59.066Z,51.93
2024-02-26T00:14:25.893Z,52.43
2024-02-26T00:16:52.713Z,43.27
2024-02-26T00:19:19.618Z,39.20
2024-02-26T00:21:46.456Z,39.70
2024-02-26T00:24:13.321Z,41.47
2024-02-26T00:26:40.264Z,41.53
2024-02-26T00:29:07.137Z,40.27
2024-02-26T00:31:33.920Z,43.17
2024-02-26T00:34:00.842Z,40.03
2024-02-26T00:36:27.765Z,38.43
2024-02-26T00:38:54.539Z,43.40
2024-02-26T00:41:22.376Z,36.00
2024-02-26T00:43:49.213Z,46.17
2024-02-26T00:46:15.987Z,37.10
2024-02-26T00:48:42.875Z,45.17
2024-02-26T00:51:09.902Z,45.53
2024-02-26T00:53:36.841Z,39.20
2024-02-26T00:56:03.803Z,38.50
2024-02-26T00:58:30.579Z,47.33
2024-02-26T01:00:57.368Z,38.53
2024-02-26T01:03:24.245Z,39.37
2024-02-26T01:05:51.952Z,39.17
2024-02-26T01:08:19.577Z,37.30
2024-02-26T01:10:46.483Z,41.77
2024-02-26T01:13:13.288Z,42.83
2024-02-26T01:15:40.071Z,40.83
2024-02-26T01:18:06.913Z,39.30
2024-02-26T01:20:33.686Z,36.00
2024-02-26T01:23:00.453Z,38.13
2024-02-26T01:25:27.216Z,41.13
2024-02-26T01:27:53.948Z,36.77
2024-02-26T01:30:21.479Z,42.80
2024-02-26T01:32:48.556Z,35.57
2024-02-26T01:35:15.565Z,41.43
2024-02-26T01:37:43.656Z,39.37
2024-02-26T01:40:11.071Z,42.10
2024-02-26T01:42:40.220Z,39.73
2024-02-26T01:45:09.494Z,40.47
2024-02-26T01:47:36.457Z,44.13
2024-02-26T01:50:03.776Z,40.40
2024-02-26T01:52:30.596Z,37.83
2024-02-26T01:54:57.447Z,35.90
2024-02-26T01:57:24.338Z,39.83
2024-02-26T01:59:51.241Z,33.90
2024-02-26T02:02:18.209Z,42.30
2024-02-26T02:04:44.993Z,38.30
2024-02-26T02:07:12.055Z,33.57
2024-02-26T02:09:39.121Z,39.40
2024-02-26T02:12:07.327Z,37.80
2024-02-26T02:14:34.153Z,37.97
2024-02-26T02:17:00.961Z,40.87
2024-02-26T02:19:27.860Z,41.50
2024-02-26T02:21:54.644Z,42.90
2024-02-26T02:24:21.542Z,40.80
2024-02-26T02:26:48.465Z,43.93
2024-02-26T02:29:15.865Z,39.50
2024-02-26T02:31:43.049Z,39.13
2024-02-26T02:34:10.910Z,40.13
2024-02-26T02:36:50.226Z,42.77
2024-02-26T02:39:17.267Z,41.53
2024-02-26T02:41:44.048Z,39.87
2024-02-26T02:44:10.887Z,39.60
2024-02-26T02:46:38.371Z,39.87
2024-02-26T02:49:05.254Z,38.03
2024-02-26T02:51:32.093Z,40.73
2024-02-26T02:53:58.843Z,37.60
2024-02-26T02:56:25.637Z,40.50
2024-02-26T02:58:52.625Z,39.20
2024-02-26T03:01:19.739Z,40.73
2024-02-26T03:03:46.625Z,35.40
2024-02-26T03:06:13.404Z,41.60
2024-02-26T03:08:40.816Z,40.10
2024-02-26T03:11:07.817Z,37.67
2024-02-26T03:13:34.632Z,38.33
2024-02-26T03:16:06.925Z,38.53
2024-02-26T03:18:33.885Z,40.57
2024-02-26T03:21:00.755Z,38.67
2024-02-26T03:23:27.505Z,41.70
2024-02-26T03:25:54.213Z,41.17
2024-02-26T03:28:20.982Z,38.60
2024-02-26T03:30:47.824Z,36.73
2024-02-26T03:33:14.808Z,38.53
2024-02-26T03:35:41.682Z,35.40
2024-02-26T03:38:08.489Z,38.13
2024-02-26T03:40:35.251Z,41.33
2024-02-26T03:43:02.098Z,39.20
2024-02-26T03:45:29.041Z,37.47
2024-02-26T03:47:55.959Z,36.97
2024-02-26T03:50:22.849Z,35.87
2024-02-26T03:52:49.580Z,35.70
2024-02-26T03:55:16.363Z,33.67
2024-02-26T03:57:43.104Z,36.60
2024-02-26T04:00:10.634Z,41.70
2024-02-26T04:02:37.402Z,41.97
2024-02-26T04:05:04.448Z,37.20
2024-02-26T04:07:31.243Z,35.47
2024-02-26T04:09:58.100Z,36.43
2024-02-26T04:12:24.857Z,36.43
2024-02-26T04:14:51.651Z,34.33
2024-02-26T04:17:18.465Z,36.60
2024-02-26T04:19:45.289Z,34.03
2024-02-26T04:22:12.208Z,30.57
2024-02-26T04:24:38.929Z,39.47
2024-02-26T04:27:05.882Z,31.67
2024-02-26T04:29:32.679Z,37.37
2024-02-26T04:31:59.461Z,37.30
2024-02-26T04:34:26.593Z,33.00
2024-02-26T04:36:53.384Z,35.30
2024-02-26T04:39:20.244Z,36.70
2024-02-26T04:41:47.212Z,38.17
2024-02-26T04:44:13.994Z,37.57
2024-02-26T04:46:40.827Z,34.10
2024-02-26T04:49:07.788Z,34.47
2024-02-26T04:51:34.695Z,32.33
2024-02-26T04:54:01.497Z,36.93
2024-02-26T04:56:28.298Z,38.00
2024-02-26T04:58:55.039Z,36.47
2024-02-26T05:01:22.104Z,34.00
2024-02-26T05:03:49.079Z,36.30
2024-02-26T05:06:16.241Z,33.77
2024-02-26T05:08:45.065Z,36.70
2024-02-26T05:11:11.975Z,33.03
2024-02-26T05:13:38.720Z,34.40
2024-02-26T05:16:05.780Z,31.80
2024-02-26T05:18:32.813Z,32.37
2024-02-26T05:20:59.704Z,36.03
2024-02-26T05:23:28.627Z,41.10
2024-02-26T05:25:55.552Z,41.50
2024-02-26T05:28:22.354Z,32.63
2024-02-26T05:30:49.182Z,33.53
2024-02-26T05:33:18.552Z,36.50
2024-02-26T05:35:46.042Z,34.80
2024-02-26T05:38:12.906Z,36.37
2024-02-26T05:40:39.921Z,37.37
2024-02-26T05:43:06.985Z,34.67
2024-02-26T05:45:34.215Z,35.20
2024-02-26T05:48:01.192Z,38.30
2024-02-26T05:50:28.063Z,39.30
2024-02-26T05:52:54.833Z,36.47
2024-02-26T05:55:21.648Z,44.13
2024-02-26T05:57:48.501Z,43.10
2024-02-26T06:00:16.051Z,40.27
2024-02-26T06:02:43.325Z,48.77
2024-02-26T06:05:10.658Z,40.73
2024-02-26T06:07:37.536Z,45.63
2024-02-26T06:10:19.558Z,49.93
2024-02-26T06:12:46.357Z,43.67
2024-02-26T06:15:13.461Z,47.47
2024-02-26T06:17:40.419Z,45.87
2024-02-26T06:20:08.038Z,47.23
2024-02-26T06:22:35.010Z,44.10
2024-02-26T06:25:01.976Z,50.73
2024-02-26T06:27:28.862Z,58.57
2024-02-26T06:29:58.003Z,47.30
2024-02-26T06:32:25.076Z,48.13
2024-02-26T06:34:52.001Z,48.07
2024-02-26T06:37:18.913Z,46.43
2024-02-26T06:39:45.767Z,49.30
2024-02-26T06:42:12.680Z,49.03
2024-02-26T06:44:39.515Z,49.77
2024-02-26T06:47:06.358Z,47.57
2024-02-26T06:49:33.302Z,49.60
2024-02-26T06:52:02.287Z,49.70
2024-02-26T06:54:29.220Z,50.53
2024-02-26T06:56:57.200Z,47.10
2024-02-26T06:59:24.921Z,49.00
2024-02-26T07:01:51.748Z,46.40
2024-02-26T07:04:19.614Z,46.30
2024-02-26T07:06:47.753Z,43.20
2024-02-26T07:09:15.326Z,47.20
2024-02-26T07:11:43.725Z,49.63
2024-02-26T07:14:11.644Z,46.17
2024-02-26T07:16:38.422Z,45.40
2024-02-26T07:19:05.725Z,46.63
2024-02-26T07:21:32.693Z,52.63
2024-02-26T07:23:59.571Z,51.07
2024-02-26T07:26:27.271Z,45.77
2024-02-26T07:28:54.349Z,51.50
2024-02-26T08:09:20.774Z,50.07
2024-02-26T08:11:47.630Z,54.60
2024-02-26T08:14:15.108Z,62.20
2024-02-26T08:16:41.870Z,54.80
2024-02-26T08:19:11.254Z,44.20
2024-02-26T08:21:38.404Z,55.43
2024-02-26T08:24:05.882Z,55.60
2024-02-26T08:26:32.689Z,47.37
2024-02-26T08:28:59.504Z,44.60
2024-02-26T08:31:26.352Z,53.93
2024-02-26T08:33:53.334Z,46.90
2024-02-26T08:36:20.698Z,49.37
2024-02-26T08:38:47.635Z,54.23
2024-02-26T08:41:14.472Z,45.47
2024-02-26T08:43:41.220Z,45.40
2024-02-26T08:46:11.673Z,43.40
2024-02-26T08:48:39.755Z,46.27
2024-02-26T08:51:10.793Z,47.50
2024-02-26T08:53:42.545Z,46.10
2024-02-26T08:56:12.523Z,44.07
2024-02-26T08:58:39.464Z,50.70
2024-02-26T09:01:06.313Z,54.60
2024-02-26T09:03:33.258Z,46.00
2024-02-26T09:06:00.103Z,48.27
2024-02-26T09:08:26.878Z,43.57
2024-02-26T09:10:53.977Z,43.33
2024-02-26T09:13:20.739Z,52.57
2024-02-26T09:15:47.505Z,43.73
2024-02-26T09:18:16.098Z,45.97
2024-02-26T09:20:43.290Z,44.40
2024-02-26T09:23:10.797Z,45.23
2024-02-26T09:25:37.654Z,41.87
2024-02-26T09:28:04.868Z,48.53
2024-02-26T09:30:31.696Z,40.90
2024-02-26T09:32:58.620Z,47.13
2024-02-26T09:35:25.580Z,40.23
2024-02-26T09:37:52.367Z,45.93
2024-02-26T09:40:19.144Z,43.47
2024-02-26T09:42:47.058Z,54.27
2024-02-26T09:45:22.509Z,45.70
2024-02-26T09:47:53.197Z,38.80
2024-02-26T09:50:23.778Z,42.03
2024-02-26T09:52:55.196Z,40.47
2024-02-26T09:55:22.173Z,43.60
2024-02-26T09:57:52.305Z,43.20
2024-02-26T10:00:21.682Z,40.00
2024-02-26T10:02:49.392Z,41.57
2024-02-26T10:05:22.216Z,40.07
2024-02-26T10:07:49.489Z,43.20
2024-02-26T10:10:17.320Z,39.43
2024-02-26T10:12:44.185Z,41.73
2024-02-26T10:15:11.171Z,38.43
2024-02-26T10:17:39.291Z,48.70
2024-02-26T10:20:25.156Z,36.13
2024-02-26T10:22:53.398Z,40.73
2024-02-26T10:25:20.930Z,38.67
2024-02-26T10:27:48.578Z,36.20
2024-02-26T10:30:23.128Z,39.67
2024-02-26T10:32:50.971Z,32.57
2024-02-26T10:35:22.053Z,39.53
2024-02-26T10:37:51.121Z,37.33
2024-02-26T10:40:18.400Z,37.67
2024-02-26T10:42:47.008Z,36.87
2024-02-26T10:45:14.236Z,37.07
2024-02-26T10:47:43.324Z,33.50
2024-02-26T10:50:10.609Z,56.37
2024-02-26T10:52:38.306Z,35.37
2024-02-26T10:55:08.449Z,35.30
2024-02-26T10:57:41.003Z,33.13
2024-02-26T11:00:11.677Z,33.63
2024-02-26T11:02:39.410Z,34.50
2024-02-26T11:05:07.497Z,33.87
2024-02-26T11:07:36.924Z,31.77
2024-02-26T11:10:07.564Z,33.97
2024-02-26T11:12:39.066Z,32.80
2024-02-26T11:15:06.806Z,55.90
2024-02-26T11:17:35.217Z,39.20
2024-02-26T11:20:04.973Z,35.60
2024-02-26T11:22:31.941Z,31.13
2024-02-26T11:24:59.255Z,31.98
2024-02-26T11:27:31.286Z,32.00
2024-02-26T11:30:01.041Z,31.60
2024-02-26T11:32:31.564Z,36.77
2024-02-26T11:34:59.876Z,29.67
2024-02-26T11:37:27.126Z,30.07
2024-02-26T11:39:54.487Z,31.20
2024-02-26T11:42:29.817Z,33.70
2024-02-26T11:45:01.915Z,33.93
2024-02-26T11:47:29.732Z,36.03
2024-02-26T11:49:56.760Z,32.67
2024-02-26T11:52:23.662Z,34.00
2024-02-26T11:54:54.839Z,31.90
2024-02-26T11:57:26.062Z,30.90
2024-02-26T11:59:53.807Z,28.90
2024-02-26T12:02:45.150Z,38.70
2024-02-26T12:05:19.089Z,32.20
2024-02-26T12:07:48.603Z,31.00
2024-02-26T12:10:26.751Z,31.67
2024-02-26T12:13:01.939Z,30.90
2024-02-26T12:15:39.414Z,29.70
2024-02-26T12:18:09.038Z,32.77
2024-02-26T12:20:36.317Z,29.17
2024-02-26T12:23:05.316Z,30.17
2024-02-26T12:25:33.824Z,28.80
2024-02-26T12:28:01.315Z,30.27
2024-02-26T12:30:32.092Z,29.50
2024-02-26T12:33:00.683Z,28.10
2024-02-26T12:35:29.604Z,30.47
2024-02-26T12:37:56.552Z,31.97
2024-02-26T12:40:23.411Z,29.90
2024-02-26T12:42:50.424Z,35.77
2024-02-26T12:45:17.709Z,33.73
2024-02-26T12:47:47.345Z,27.00
2024-02-26T12:50:14.775Z,30.20
2024-02-26T12:52:46.616Z,29.20
2024-02-26T12:55:17.854Z,29.20
2024-02-26T12:57:46.257Z,29.00
2024-02-26T13:00:17.530Z,28.03
2024-02-26T13:02:45.849Z,31.23
2024-02-26T13:05:14.881Z,31.07
2024-02-26T13:07:52.403Z,28.57
2024-02-26T13:10:19.488Z,32.37
2024-02-26T13:12:47.863Z,30.60
2024-02-26T13:15:19.443Z,27.50
2024-02-26T13:17:47.236Z,28.50
2024-02-26T13:20:16.319Z,28.70
2024-02-26T13:22:45.113Z,27.27
2024-02-26T13:25:11.904Z,26.93
2024-02-26T13:27:38.823Z,28.20
2024-02-26T13:30:11.875Z,29.10
2024-02-26T13:32:42.728Z,28.03
2024-02-26T13:35:13.732Z,26.53
2024-02-26T13:37:41.588Z,26.80
2024-02-26T13:40:12.420Z,26.17
2024-02-26T13:42:39.888Z,35.33
2024-02-26T13:45:07.908Z,25.67
2024-02-26T13:47:37.907Z,25.33
2024-02-26T13:50:05.208Z,28.57
2024-02-26T13:52:33.823Z,26.53
2024-02-26T13:55:00.831Z,27.50
2024-02-26T13:57:28.274Z,28.23
2024-02-26T13:59:55.326Z,28.67
2024-02-26T14:02:22.384Z,26.47
2024-02-26T14:04:49.141Z,29.93
2024-02-26T14:07:18.435Z,31.20
2024-02-26T14:09:50.244Z,35.40
2024-02-26T14:12:20.122Z,30.57
2024-02-26T14:14:50.058Z,29.57
2024-02-26T14:17:17.020Z,30.83
2024-02-26T14:19:49.186Z,31.63
2024-02-26T14:22:19.461Z,29.23
2024-02-26T14:24:46.212Z,31.90
2024-02-26T14:27:18.205Z,29.30
2024-02-26T14:29:45.324Z,29.60
2024-02-26T14:32:12.176Z,29.90
2024-02-26T14:34:39.445Z,32.17
2024-02-26T14:37:07.066Z,35.47
2024-02-26T14:39:34.389Z,32.03
2024-02-26T14:42:01.951Z,28.20
2024-02-26T14:44:28.866Z,30.00
2024-02-26T14:46:55.706Z,31.17
2024-02-26T14:49:22.627Z,28.90
2024-02-26T14:51:49.423Z,29.00
2024-02-26T14:54:16.394Z,30.97
2024-02-26T14:56:43.202Z,29.83
2024-02-26T14:59:10.041Z,30.20
2024-02-26T15:01:36.984Z,31.07
2024-02-26T15:04:05.013Z,31.27
2024-02-26T15:06:32.035Z,33.00
2024-02-26T15:08:58.887Z,31.97
2024-02-26T15:11:25.679Z,31.93
2024-02-26T15:13:53.545Z,29.30
2024-02-26T15:16:21.939Z,34.80
2024-02-26T15:18:49.226Z,31.00
2024-02-26T15:21:16.241Z,30.87
2024-02-26T15:23:58.692Z,34.87
2024-02-26T15:26:31.727Z,31.40
2024-02-26T15:28:58.582Z,30.63
2024-02-26T15:31:25.347Z,34.23
2024-02-26T15:33:52.241Z,30.07
2024-02-26T15:36:19.189Z,33.63
2024-02-26T15:38:45.959Z,30.47
2024-02-26T15:41:14.012Z,32.60
2024-02-26T15:43:41.172Z,34.20
2024-02-26T15:46:08.235Z,34.37
2024-02-26T15:48:37.126Z,33.33
2024-02-26T15:51:04.629Z,30.10
2024-02-26T15:53:32.532Z,34.90
2024-02-26T15:56:00.462Z,32.60
2024-02-26T15:58:27.268Z,32.33
2024-02-26T16:00:54.192Z,34.40
2024-02-26T16:03:21.125Z,32.07
2024-02-26T16:05:48.138Z,33.27
2024-02-26T16:08:25.006Z,52.43
2024-02-26T16:10:53.016Z,32.10
2024-02-26T16:13:21.394Z,33.00
2024-02-26T16:16:00.345Z,36.80
2024-02-26T16:18:27.404Z,36.10
2024-02-26T16:20:55.467Z,40.53
2024-02-26T16:23:23.561Z,36.20
2024-02-26T16:25:51.862Z,36.83
2024-02-26T16:28:19.455Z,36.63
2024-02-26T16:30:46.440Z,39.87
2024-02-26T16:33:14.397Z,39.57
2024-02-26T16:35:41.264Z,37.00
2024-02-26T16:38:07.993Z,40.27
2024-02-26T16:40:34.825Z,39.03
2024-02-26T16:43:04.602Z,36.30
2024-02-26T16:45:33.135Z,42.93
2024-02-26T16:48:00.115Z,40.03
2024-02-26T16:50:27.458Z,39.47
2024-02-26T16:52:55.238Z,44.33
2024-02-26T16:55:22.065Z,38.63
2024-02-26T16:57:48.791Z,38.57
2024-02-26T17:00:17.276Z,46.30
2024-02-26T17:02:45.458Z,37.70
2024-02-26T17:05:13.518Z,43.57
2024-02-26T17:07:42.678Z,42.83
2024-02-26T17:10:09.689Z,38.87
2024-02-26T17:12:36.440Z,42.93
2024-02-26T17:15:03.376Z,41.53
2024-02-26T17:17:30.175Z,44.13
2024-02-26T17:19:58.663Z,37.90
2024-02-26T17:22:26.357Z,38.80
2024-02-26T17:24:53.196Z,43.57
2024-02-26T17:27:20.043Z,40.97
2024-02-26T17:29:46.821Z,39.57
2024-02-26T17:32:16.180Z,42.43
2024-02-26T17:34:43.982Z,41.97
2024-02-26T17:37:10.988Z,39.80
2024-02-26T17:39:37.920Z,39.43
2024-02-26T17:42:04.843Z,40.73
2024-02-26T17:44:38.767Z,38.33
2024-02-26T17:47:06.480Z,46.10
2024-02-26T17:49:34.113Z,44.37
2024-02-26T17:52:01.384Z,53.37
2024-02-26T17:54:29.834Z,46.13
2024-02-26T17:56:58.659Z,47.13
2024-02-26T17:59:25.772Z,46.43
2024-02-26T18:01:52.651Z,48.13
2024-02-26T18:04:19.729Z,48.13
2024-02-26T18:06:48.593Z,51.40
2024-02-26T18:09:15.586Z,56.05
2024-02-26T18:11:46.591Z,54.43
2024-02-26T18:14:13.570Z,57.20
2024-02-26T18:16:40.399Z,51.27
2024-02-26T18:19:07.342Z,50.13
2024-02-26T18:21:35.118Z,55.17
2024-02-26T18:24:02.351Z,47.07
2024-02-26T18:26:29.884Z,49.83
2024-02-26T18:28:56.860Z,50.00
2024-02-26T18:31:23.728Z,48.93
2024-02-26T18:33:50.805Z,50.83
2024-02-26T18:36:23.672Z,45.63
2024-02-26T18:38:51.593Z,44.53
2024-02-26T18:41:22.861Z,48.70
2024-02-26T18:43:51.210Z,41.97
2024-02-26T18:46:18.237Z,46.20
2024-02-26T18:48:45.409Z,40.00
2024-02-26T18:51:13.420Z,49.80
2024-02-26T18:53:41.468Z,42.90
2024-02-26T18:56:12.401Z,42.50
2024-02-26T18:58:39.216Z,40.60
2024-02-26T19:01:06.067Z,45.77
2024-02-26T19:03:33.252Z,39.07
2024-02-26T19:06:00.234Z,38.00
2024-02-26T19:08:27.520Z,39.97
2024-02-26T19:10:54.501Z,41.77
2024-02-26T19:13:22.332Z,37.30
2024-02-26T19:15:49.167Z,40.40
2024-02-26T19:18:20.055Z,38.93
2024-02-26T19:20:48.098Z,42.13
2024-02-26T19:23:15.208Z,37.33
2024-02-26T19:25:43.583Z,34.47
2024-02-26T19:28:11.602Z,39.30
2024-02-26T19:30:39.359Z,39.60
2024-02-26T19:33:06.724Z,37.57
2024-02-26T19:35:34.744Z,39.70
2024-02-26T19:38:01.821Z,39.40
2024-02-26T19:40:29.682Z,37.27
2024-02-26T19:42:56.420Z,35.37
2024-02-26T19:45:23.652Z,32.47
2024-02-26T19:47:50.783Z,39.93
2024-02-26T19:50:18.723Z,40.77
2024-02-26T19:52:45.513Z,39.67
2024-02-26T19:55:15.995Z,37.73
2024-02-26T19:57:42.905Z,40.57
2024-02-26T20:00:10.119Z,41.03
2024-02-26T20:02:38.097Z,39.53
2024-02-26T20:05:05.322Z,34.33
2024-02-26T20:07:32.365Z,35.07
2024-02-26T20:09:59.296Z,33.33
2024-02-26T20:12:27.461Z,34.23
2024-02-26T20:14:54.427Z,33.63
2024-02-26T20:17:21.786Z,36.70
2024-02-26T20:19:48.938Z,35.40
2024-02-26T20:22:16.007Z,36.73
2024-02-26T20:24:47.869Z,34.23
2024-02-26T20:27:14.741Z,37.80
2024-02-26T20:29:41.556Z,32.17
2024-02-26T20:32:08.574Z,33.90
2024-02-26T20:34:35.419Z,33.80
2024-02-26T20:37:05.047Z,36.27
2024-02-26T20:39:31.865Z,33.90
2024-02-26T20:41:58.679Z,36.70
2024-02-26T20:44:25.751Z,35.53
2024-02-26T20:46:59.848Z,35.57
2024-02-26T20:49:27.182Z,36.40
2024-02-26T20:51:54.995Z,37.23
2024-02-26T20:54:22.211Z,34.73
2024-02-26T20:56:50.614Z,37.83
2024-02-26T20:59:17.662Z,34.30
2024-02-26T21:01:45.393Z,34.40
2024-02-26T21:04:12.526Z,34.60
2024-02-26T21:06:39.688Z,32.73
2024-02-26T21:09:07.291Z,33.23
2024-02-26T21:11:38.253Z,34.07
2024-02-26T21:14:05.389Z,34.93
2024-02-26T21:16:32.188Z,34.23
2024-02-26T21:19:00.831Z,33.50
2024-02-26T21:21:29.634Z,36.70
2024-02-26T21:24:01.080Z,33.27
2024-02-26T21:26:29.775Z,32.27
2024-02-26T21:28:56.878Z,30.60
2024-02-26T21:31:23.711Z,35.03
2024-02-26T21:33:51.142Z,30.33
2024-02-26T21:36:21.163Z,32.13
2024-02-26T21:38:50.830Z,31.47
2024-02-26T21:41:20.078Z,29.87
2024-02-26T21:43:51.481Z,29.87
2024-02-26T21:46:18.786Z,35.20
2024-02-26T21:48:46.036Z,30.87
2024-02-26T21:51:14.132Z,27.50
2024-02-26T21:53:41.125Z,27.70
2024-02-26T21:56:08.621Z,34.83
2024-02-26T21:58:35.497Z,32.40
2024-02-26T22:01:02.366Z,28.40
2024-02-26T22:03:30.425Z,31.03
2024-02-26T22:05:57.258Z,30.57
2024-02-26T22:08:24.072Z,31.37
2024-02-26T22:10:51.449Z,26.17
2024-02-26T22:13:18.289Z,28.50
2024-02-26T22:15:46.233Z,26.53
2024-02-26T22:18:13.486Z,29.27
2024-02-26T22:20:41.912Z,30.30
2024-02-26T22:23:08.832Z,28.83
2024-02-26T22:25:35.966Z,29.67
2024-02-26T22:28:03.718Z,27.13
2024-02-26T22:30:30.563Z,29.53
2024-02-26T22:32:57.487Z,25.67
2024-02-26T22:35:25.484Z,28.90
2024-02-26T22:37:53.040Z,27.60
2024-02-26T22:40:19.736Z,27.40
2024-02-26T22:42:46.487Z,28.27
2024-02-26T22:45:17.110Z,30.87
2024-02-26T22:47:43.921Z,32.00
2024-02-26T22:50:10.757Z,30.50
2024-02-26T22:52:37.483Z,31.53
2024-02-26T22:55:06.091Z,29.30
2024-02-26T22:57:33.263Z,28.43
2024-02-26T23:00:00.192Z,26.27
2024-02-26T23:02:26.989Z,31.70
2024-02-26T23:04:54.084Z,35.63
2024-02-26T23:07:20.998Z,27.17
2024-02-26T23:09:48.325Z,35.23
2024-02-26T23:12:16.243Z,28.97
2024-02-26T23:14:43.012Z,28.40
2024-02-26T23:17:10.336Z,31.70
2024-02-26T23:19:37.584Z,27.97
2024-02-26T23:22:04.501Z,28.33
2024-02-26T23:24:31.332Z,31.53
2024-02-26T23:26:58.164Z,30.40
2024-02-26T23:29:24.977Z,28.57
2024-02-26T23:31:51.781Z,27.60
2024-02-26T23:34:18.605Z,31.97
2024-02-26T23:36:46.261Z,29.40
2024-02-26T23:39:13.141Z,27.40
2024-02-26T23:41:40.013Z,29.17
2024-02-26T23:44:06.808Z,28.77
2024-02-26T23:46:37.584Z,29.03
2024-02-26T23:49:07.151Z,27.87
2024-02-26T23:51:34.066Z,27.03
2024-02-26T23:54:00.880Z,29.50
2024-02-26T23:56:27.584Z,31.53
2024-02-26T23:58:54.353Z,26.67
